Time;durP1;ratioP1;P1;durP2;ratioP2;P2;SDS_P1;SDS_P2;PMS_P1;PMS_P2;Temp;Humidity;BMP_temperature;BMP_pressure;BME280_temperature;BME280_humidity;BME280_pressure;Samples;Min_cycle;Max_cycle;Signal;HPM_P1;HPM_P2
2022/10/15 00:02:07;;;;;;;9.07;4.40;;;;;;;14.27;100.00;99321.25;5011286;28;20744;-68
2022/10/15 00:04:32;;;;;;;5.13;4.40;;;;;;;14.25;100.00;99311.03;5008931;28;20194;-69
2022/10/15 00:06:58;;;;;;;4.80;4.37;;;;;;;14.14;100.00;99311.91;5013030;28;20493;-68
2022/10/15 00:09:23;;;;;;;4.83;4.30;;;;;;;14.15;100.00;99305.78;5014406;28;20203;-67
2022/10/15 00:11:49;;;;;;;5.63;4.93;;;;;;;14.25;100.00;99302.44;5014691;28;20225;-67
2022/10/15 00:14:14;;;;;;;5.00;4.50;;;;;;;14.24;100.00;99311.13;5012620;28;20183;-70
2022/10/15 00:16:39;;;;;;;5.43;4.63;;;;;;;14.31;100.00;99305.34;5000974;28;20623;-68
2022/10/15 00:19:05;;;;;;;5.37;4.93;;;;;;;14.24;100.00;99306.81;5013573;28;20717;-67
2022/10/15 00:21:30;;;;;;;5.07;4.63;;;;;;;14.24;100.00;99309.38;5006337;28;20348;-67
2022/10/15 00:23:55;;;;;;;4.73;4.27;;;;;;;14.33;100.00;99310.38;5018027;28;20179;-67
2022/10/15 00:26:23;;;;;;;5.60;5.10;;;;;;;14.39;100.00;99314.22;5013678;28;20582;-67
2022/10/15 00:28:50;;;;;;;7.60;5.63;;;;;;;14.37;100.00;99314.34;5012925;28;20199;-67
2022/10/15 00:31:19;;;;;;;5.80;5.20;;;;;;;14.38;100.00;99299.66;5005954;28;20309;-67
2022/10/15 00:33:45;;;;;;;5.40;5.00;;;;;;;14.31;100.00;99307.94;5012541;28;20543;-73
2022/10/15 00:36:16;;;;;;;5.70;5.20;;;;;;;14.21;100.00;99309.63;5013708;28;20175;-67
2022/10/15 00:38:42;;;;;;;6.10;5.50;;;;;;;14.28;100.00;99297.81;5012594;28;20269;-68
2022/10/15 00:41:13;;;;;;;4.87;4.43;;;;;;;14.16;100.00;99304.00;5005460;28;20769;-67
2022/10/15 00:43:48;;;;;;;4.63;4.23;;;;;;;14.14;100.00;99292.97;5012237;28;20202;-71
2022/10/15 00:46:28;;;;;;;4.80;4.40;;;;;;;14.16;100.00;99291.88;5012513;28;20225;-67
2022/10/15 00:49:02;;;;;;;7.70;4.80;;;;;;;14.26;100.00;99289.38;5012987;28;20191;-67
2022/10/15 00:51:35;;;;;;;5.93;4.70;;;;;;;14.29;100.00;99296.03;5002311;28;20242;-67
2022/10/15 00:54:01;;;;;;;5.33;4.07;;;;;;;14.21;100.00;99299.28;5012674;28;20186;-67
2022/10/15 00:56:29;;;;;;;6.83;5.03;;;;;;;14.25;100.00;99292.09;5014086;28;20716;-67
2022/10/15 00:58:56;;;;;;;5.17;4.67;;;;;;;14.33;100.00;99306.03;5013854;28;20193;-69
2022/10/15 01:01:22;;;;;;;4.93;4.53;;;;;;;14.35;100.00;99301.56;5005723;28;20771;-68
2022/10/15 01:03:47;;;;;;;5.30;4.80;;;;;;;14.38;100.00;99303.06;5012382;28;20585;-67
2022/10/15 01:06:13;;;;;;;5.40;4.80;;;;;;;14.36;100.00;99304.94;5012496;28;20193;-67
2022/10/15 01:08:38;;;;;;;6.00;4.87;;;;;;;14.28;100.00;99299.59;5011065;28;20521;-67
2022/10/15 01:11:36;;;;;;;5.40;4.70;;;;;;;14.18;100.00;99296.97;5003424;28;20304;-67
2022/10/15 01:14:26;;;;;;;6.43;4.40;;;;;;;14.21;100.00;99294.09;5006663;28;20240;-68
2022/10/15 01:17:00;;;;;;;4.93;4.33;;;;;;;14.24;100.00;99293.03;4999823;28;20194;-67
2022/10/15 01:19:53;;;;;;;5.10;4.60;;;;;;;14.25;100.00;99295.50;5012091;28;20186;-68
2022/10/15 01:22:39;;;;;;;5.57;4.97;;;;;;;14.18;100.00;99305.53;5018341;28;20252;-67
2022/10/15 01:25:28;;;;;;;5.40;4.53;;;;;;;14.22;100.00;99307.88;5011465;28;20252;-68
2022/10/15 01:27:56;;;;;;;7.40;4.70;;;;;;;14.30;100.00;99302.88;5013194;28;20203;-67
2022/10/15 01:30:24;;;;;;;5.73;5.10;;;;;;;14.33;100.00;99302.63;4998225;28;20208;-68
2022/10/15 01:33:14;;;;;;;5.73;5.23;;;;;;;14.31;100.00;99302.75;5011539;28;20661;-72
2022/10/15 01:35:49;;;;;;;6.10;5.60;;;;;;;14.22;100.00;99297.53;5012403;28;20231;-70
2022/10/15 01:38:26;;;;;;;6.67;5.30;;;;;;;14.18;100.00;99292.59;5011518;28;20186;-71
2022/10/15 01:40:58;;;;;;;5.80;5.30;;;;;;;14.18;100.00;99279.66;5008812;28;20229;-68
2022/10/15 01:43:50;;;;;;;6.40;5.00;;;;;;;14.16;100.00;99281.53;5011504;28;20543;-68
2022/10/15 01:46:27;;;;;;;5.30;4.80;;;;;;;14.16;100.00;99278.97;4992428;28;20222;-68
2022/10/15 01:48:54;;;;;;;9.37;5.63;;;;;;;14.23;100.00;99268.94;5011225;28;20249;-68
2022/10/15 01:51:21;;;;;;;6.00;5.50;;;;;;;14.20;100.00;99275.19;5004457;28;20226;-70
2022/10/15 01:53:49;;;;;;;6.37;5.77;;;;;;;14.19;100.00;99275.31;5010645;28;20268;-73
2022/10/15 01:56:20;;;;;;;6.83;5.63;;;;;;;14.18;100.00;99261.56;5010225;28;20179;-70
2022/10/15 01:58:48;;;;;;;5.87;5.37;;;;;;;14.20;100.00;99267.44;5011391;28;20214;-68
2022/10/15 02:01:14;;;;;;;6.30;5.80;;;;;;;14.16;100.00;99271.19;5004044;28;20224;-67
2022/10/15 02:03:50;;;;;;;7.60;5.50;;;;;;;14.13;100.00;99263.72;5010913;28;20182;-70
2022/10/15 02:06:40;;;;;;;6.47;5.90;;;;;;;14.19;100.00;99267.56;5008955;28;20613;-68
2022/10/15 02:09:26;;;;;;;6.67;5.30;;;;;;;14.11;100.00;99267.38;5007056;28;20210;-70
2022/10/15 02:12:29;;;;;;;5.50;5.10;;;;;;;13.99;100.00;99276.94;5001317;28;20226;-68
2022/10/15 02:15:13;;;;;;;5.10;4.77;;;;;;;14.02;100.00;99277.53;4998054;28;20245;-71
2022/10/15 02:17:52;;;;;;;5.47;4.93;;;;;;;14.16;100.00;99278.16;4998869;28;20186;-67
2022/10/15 02:20:29;;;;;;;5.03;4.63;;;;;;;14.16;100.00;99278.97;5003989;28;20197;-67
2022/10/15 02:23:00;;;;;;;5.13;4.73;;;;;;;14.24;100.00;99277.50;5010835;28;20601;-69
2022/10/15 02:25:27;;;;;;;5.07;4.60;;;;;;;14.18;100.00;99273.69;5010552;28;20271;-67
2022/10/15 02:27:55;;;;;;;5.00;4.60;;;;;;;14.20;100.00;99257.09;5011221;28;20194;-67
2022/10/15 02:30:21;;;;;;;6.03;4.60;;;;;;;14.18;100.00;99266.72;5002730;28;20260;-73
2022/10/15 02:32:50;;;;;;;5.50;5.00;;;;;;;14.16;100.00;99272.97;5010824;28;20171;-67
2022/10/15 02:35:17;;;;;;;5.77;5.27;;;;;;;13.89;100.00;99266.53;5010206;28;20170;-69
2022/10/15 02:37:46;;;;;;;5.07;4.67;;;;;;;13.96;100.00;99272.84;5010879;28;20649;-68
2022/10/15 02:40:12;;;;;;;5.20;4.80;;;;;;;13.90;100.00;99269.97;5003033;28;20217;-67
2022/10/15 02:42:37;;;;;;;5.50;4.93;;;;;;;13.91;100.00;99279.34;5010652;28;20179;-67
2022/10/15 02:45:03;;;;;;;5.80;5.30;;;;;;;13.99;100.00;99277.78;5011313;28;20175;-67
2022/10/15 02:47:28;;;;;;;6.50;5.13;;;;;;;14.02;100.00;99282.69;5011863;28;20182;-66
2022/10/15 02:49:54;;;;;;;6.30;5.80;;;;;;;14.07;100.00;99289.28;5010398;28;20191;-67
2022/10/15 02:52:19;;;;;;;11.23;5.93;;;;;;;14.08;100.00;99286.56;4988966;28;20234;-67
2022/10/15 02:54:44;;;;;;;8.33;6.10;;;;;;;13.96;100.00;99278.03;5010520;28;20598;-71
2022/10/15 02:57:09;;;;;;;9.40;6.83;;;;;;;14.00;100.00;99283.75;5012055;28;20651;-69
2022/10/15 02:59:35;;;;;;;9.50;6.93;;;;;;;14.01;100.00;99272.47;5012115;28;20187;-68
2022/10/15 03:02:00;;;;;;;8.93;6.73;;;;;;;14.02;100.00;99284.47;4961504;28;20223;-68
2022/10/15 03:04:25;;;;;;;8.60;7.33;;;;;;;14.08;100.00;99277.94;5004533;28;20266;-67
2022/10/15 03:06:51;;;;;;;8.57;6.87;;;;;;;14.09;100.00;99282.19;5020418;28;20198;-67
2022/10/15 03:09:16;;;;;;;10.57;7.77;;;;;;;14.08;100.00;99276.19;5014336;28;20606;-67
2022/10/15 03:11:41;;;;;;;8.17;6.90;;;;;;;14.07;100.00;99289.28;5017861;28;20609;-67
2022/10/15 03:14:06;;;;;;;9.30;7.50;;;;;;;14.10;100.00;99294.16;5013709;28;20190;-67
2022/10/15 03:16:32;;;;;;;9.43;7.27;;;;;;;13.94;100.00;99285.09;5016767;28;20226;-69
2022/10/15 03:18:57;;;;;;;9.50;8.17;;;;;;;14.01;100.00;99293.97;5019245;28;20174;-68
2022/10/15 03:21:22;;;;;;;10.87;7.93;;;;;;;14.02;100.00;99302.56;5015695;28;20633;-67
2022/10/15 03:23:47;;;;;;;9.70;7.37;;;;;;;14.02;100.00;99293.03;5020258;28;20179;-67
2022/10/15 03:26:13;;;;;;;12.90;8.23;;;;;;;14.02;100.00;99294.81;5013906;28;20166;-67
2022/10/15 03:28:38;;;;;;;12.20;8.67;;;;;;;14.04;100.00;99285.97;5014968;28;20531;-81
2022/10/15 03:31:03;;;;;;;12.70;7.93;;;;;;;14.03;100.00;99289.50;4984442;28;20229;-67
2022/10/15 03:33:29;;;;;;;12.83;8.10;;;;;;;14.08;100.00;99296.91;5003475;28;20191;-68
2022/10/15 03:35:56;;;;;;;10.13;8.13;;;;;;;14.08;100.00;99303.81;5012429;28;20217;-71
2022/10/15 03:38:21;;;;;;;10.07;8.60;;;;;;;14.07;100.00;99300.41;5013848;28;20214;-68
2022/10/15 03:40:46;;;;;;;9.80;7.90;;;;;;;14.06;100.00;99301.38;5006662;28;20655;-68
2022/10/15 03:43:12;;;;;;;10.07;7.37;;;;;;;14.06;100.00;99303.13;5024550;28;20191;-68
2022/10/15 03:45:37;;;;;;;10.87;7.63;;;;;;;14.00;100.00;99310.47;5014565;28;20230;-68
2022/10/15 03:48:03;;;;;;;9.03;7.30;;;;;;;14.05;100.00;99304.88;5014872;28;20175;-68
2022/10/15 03:50:28;;;;;;;10.83;7.30;;;;;;;14.04;100.00;99309.25;5004385;28;20281;-67
2022/10/15 03:52:53;;;;;;;6.70;6.00;;;;;;;13.90;100.00;99308.72;5013770;28;20186;-68
2022/10/15 03:55:19;;;;;;;11.20;6.80;;;;;;;14.02;100.00;99307.75;5013088;28;20278;-68
2022/10/15 03:57:44;;;;;;;11.77;6.83;;;;;;;14.05;100.00;99299.72;5014830;28;20194;-68
2022/10/15 04:00:12;;;;;;;13.43;7.67;;;;;;;13.98;100.00;99307.16;5005284;28;20595;-67
2022/10/15 04:02:37;;;;;;;9.40;6.30;;;;;;;13.98;100.00;99311.50;5020745;28;20214;-68
2022/10/15 04:05:03;;;;;;;10.53;6.30;;;;;;;14.02;100.00;99316.31;5004713;28;20210;-68
2022/10/15 04:07:28;;;;;;;8.10;6.17;;;;;;;14.06;100.00;99324.63;5014387;28;20630;-69
2022/10/15 04:09:53;;;;;;;7.80;5.47;;;;;;;14.02;100.00;99325.84;5013970;28;20214;-68
2022/10/15 04:12:19;;;;;;;7.17;5.57;;;;;;;13.99;100.00;99326.06;4992649;28;20328;-68
2022/10/15 04:14:44;;;;;;;6.63;4.57;;;;;;;14.02;100.00;99326.66;5013946;28;20195;-68
2022/10/15 04:17:10;;;;;;;6.17;4.90;;;;;;;14.08;100.00;99327.94;5014354;28;20185;-69
2022/10/15 04:19:35;;;;;;;8.33;5.00;;;;;;;14.11;100.00;99327.66;5013180;28;20252;-67
2022/10/15 04:22:01;;;;;;;5.23;4.73;;;;;;;14.08;100.00;99327.94;5005244;28;20246;-68
2022/10/15 04:24:26;;;;;;;6.33;5.10;;;;;;;13.87;100.00;99327.91;5014198;28;20547;-67
2022/10/15 04:26:52;;;;;;;6.23;5.33;;;;;;;13.70;100.00;99329.25;5013049;28;20279;-68
2022/10/15 04:29:18;;;;;;;5.30;4.80;;;;;;;13.69;100.00;99325.03;5013898;28;20202;-68
2022/10/15 04:31:43;;;;;;;5.50;4.83;;;;;;;13.71;100.00;99328.31;5006236;28;20225;-68
2022/10/15 04:34:09;;;;;;;5.80;4.50;;;;;;;13.80;100.00;99339.69;5012118;28;20256;-67
2022/10/15 04:36:35;;;;;;;6.63;5.07;;;;;;;13.87;100.00;99331.28;5012766;28;20185;-68
2022/10/15 04:39:00;;;;;;;6.00;5.40;;;;;;;13.67;100.00;99337.25;5012848;28;20273;-68
2022/10/15 04:41:26;;;;;;;5.50;4.53;;;;;;;13.64;100.00;99335.72;4996139;28;20227;-68
2022/10/15 04:43:51;;;;;;;4.67;4.27;;;;;;;13.56;100.00;99326.00;5006743;28;20541;-68
2022/10/15 04:46:17;;;;;;;5.37;4.43;;;;;;;13.66;100.00;99331.25;5013341;28;20234;-68
2022/10/15 04:48:42;;;;;;;4.27;3.87;;;;;;;13.72;100.00;99340.28;5013917;28;20201;-67
2022/10/15 04:51:11;;;;;;;4.97;4.10;;;;;;;13.75;100.00;99336.66;5012188;28;20301;-68
2022/10/15 04:53:37;;;;;;;5.00;3.10;;;;;;;13.61;100.00;99346.31;5013287;28;20537;-68
2022/10/15 04:56:05;;;;;;;3.83;3.37;;;;;;;13.65;100.00;99336.56;5012140;28;20265;-67
2022/10/15 04:58:31;;;;;;;4.07;3.50;;;;;;;13.69;100.00;99341.38;5013270;28;20512;-67
2022/10/15 05:01:06;;;;;;;3.20;2.90;;;;;;;13.62;100.00;99334.19;5010106;28;20218;-83
2022/10/15 05:03:33;;;;;;;4.33;3.57;;;;;;;13.74;100.00;99345.34;5012493;28;20815;-66
2022/10/15 05:06:01;;;;;;;3.30;3.00;;;;;;;13.73;100.00;99336.78;5013334;28;20183;-68
2022/10/15 05:08:28;;;;;;;3.27;2.97;;;;;;;13.74;100.00;99345.34;5013538;28;20193;-68
2022/10/15 05:10:54;;;;;;;3.97;3.57;;;;;;;13.81;100.00;99333.56;4998185;28;20262;-67
2022/10/15 05:13:19;;;;;;;2.70;2.50;;;;;;;13.83;100.00;99336.81;5002802;28;20213;-68
2022/10/15 05:15:44;;;;;;;3.13;2.83;;;;;;;13.71;100.00;99341.22;5006977;28;20557;-68
2022/10/15 05:18:09;;;;;;;3.20;2.90;;;;;;;13.71;100.00;99342.03;5005457;28;20195;-71
2022/10/15 05:20:35;;;;;;;3.57;2.73;;;;;;;13.66;100.00;99333.03;5005053;28;20213;-69
2022/10/15 05:23:00;;;;;;;3.87;3.37;;;;;;;13.66;100.00;99328.66;5024214;28;20191;-68
2022/10/15 05:25:25;;;;;;;4.03;3.23;;;;;;;13.63;100.00;99334.09;5012679;28;20190;-68
2022/10/15 05:27:50;;;;;;;4.20;3.40;;;;;;;13.55;100.00;99342.44;5012652;28;20264;-67
2022/10/15 05:30:16;;;;;;;4.20;3.60;;;;;;;13.49;100.00;99350.66;5003161;28;20199;-70
2022/10/15 05:32:41;;;;;;;3.33;3.07;;;;;;;13.52;100.00;99358.19;5011613;28;20701;-68
2022/10/15 05:35:07;;;;;;;3.47;3.17;;;;;;;13.56;100.00;99369.91;5013090;28;20182;-68
2022/10/15 05:37:33;;;;;;;4.83;3.30;;;;;;;13.59;100.00;99374.03;5011684;28;20186;-68
2022/10/15 05:39:58;;;;;;;4.10;3.70;;;;;;;13.60;100.00;99383.44;5012846;28;20258;-68
2022/10/15 05:42:23;;;;;;;3.80;3.30;;;;;;;13.60;100.00;99380.84;5002165;28;20353;-67
2022/10/15 05:44:48;;;;;;;4.23;3.83;;;;;;;13.56;100.00;99380.25;5012459;28;20171;-67
2022/10/15 05:47:13;;;;;;;4.53;3.93;;;;;;;13.44;100.00;99383.81;5011342;28;20814;-67
2022/10/15 05:49:39;;;;;;;4.00;3.60;;;;;;;13.33;100.00;99391.53;5012671;28;20202;-67
2022/10/15 05:52:04;;;;;;;5.60;3.40;;;;;;;13.40;100.00;99387.56;5018078;28;20221;-67
2022/10/15 05:54:29;;;;;;;4.90;3.73;;;;;;;13.38;100.00;99404.94;5012236;28;20183;-67
2022/10/15 05:56:54;;;;;;;3.63;3.30;;;;;;;13.49;100.00;99404.94;5013523;28;20634;-71
2022/10/15 05:59:20;;;;;;;4.53;3.60;;;;;;;13.52;100.00;99414.19;5016168;28;20182;-70
2022/10/15 06:01:45;;;;;;;3.37;3.07;;;;;;;13.63;100.00;99405.63;4997931;28;20222;-68
2022/10/15 06:04:10;;;;;;;4.67;3.03;;;;;;;13.70;100.00;99407.59;5007345;28;20179;-68
2022/10/15 06:06:36;;;;;;;2.83;2.50;;;;;;;13.72;100.00;99402.31;5011231;28;20183;-68
2022/10/15 06:09:01;;;;;;;2.37;2.17;;;;;;;13.74;100.00;99397.03;5012355;28;20207;-67
2022/10/15 06:11:27;;;;;;;4.47;2.70;;;;;;;13.71;100.00;99403.25;5001735;28;20230;-67
2022/10/15 06:13:52;;;;;;;2.57;2.37;;;;;;;13.82;100.00;99394.66;5005680;28;20171;-67
2022/10/15 06:16:18;;;;;;;2.00;1.90;;;;;;;13.78;100.00;99396.66;5001522;28;20198;-67
2022/10/15 06:18:43;;;;;;;3.00;1.50;;;;;;;13.86;100.00;99406.41;5008809;28;20179;-67
2022/10/15 06:21:10;;;;;;;4.17;1.73;;;;;;;13.86;100.00;99406.41;5004239;28;20620;-67
2022/10/15 06:23:35;;;;;;;3.37;2.10;;;;;;;13.75;100.00;99406.44;5010934;28;20186;-68
2022/10/15 06:26:05;;;;;;;2.30;1.97;;;;;;;13.65;100.00;99406.31;5011850;28;20189;-67
2022/10/15 06:28:31;;;;;;;2.40;2.20;;;;;;;13.67;100.00;99402.69;5010974;28;20622;-70
2022/10/15 06:30:58;;;;;;;2.87;2.27;;;;;;;13.70;100.00;99414.53;5003591;28;20244;-69
2022/10/15 06:33:24;;;;;;;2.67;2.30;;;;;;;13.64;100.00;99408.06;5000007;28;20187;-67
2022/10/15 06:35:49;;;;;;;3.40;3.07;;;;;;;13.53;100.00;99408.09;5007798;28;20179;-68
2022/10/15 06:38:15;;;;;;;6.27;4.70;;;;;;;13.45;100.00;99413.88;5005071;28;20195;-70
2022/10/15 06:40:40;;;;;;;7.33;4.57;;;;;;;13.42;100.00;99416.69;4997260;28;20729;-67
2022/10/15 06:43:07;;;;;;;3.03;2.80;;;;;;;13.33;100.00;99415.59;5013150;28;20269;-68
2022/10/15 06:45:35;;;;;;;4.00;2.60;;;;;;;13.40;100.00;99424.56;5001000;28;20246;-67
2022/10/15 06:48:02;;;;;;;3.57;2.70;;;;;;;13.61;100.00;99431.59;5014928;28;20220;-68
2022/10/15 06:50:28;;;;;;;3.73;2.70;;;;;;;13.76;100.00;99431.34;4995071;28;20242;-68
2022/10/15 06:52:53;;;;;;;3.03;2.60;;;;;;;13.71;100.00;99435.09;5008523;28;20209;-68
2022/10/15 06:55:18;;;;;;;3.60;2.57;;;;;;;13.87;100.00;99445.03;4998766;28;20198;-68
2022/10/15 06:57:43;;;;;;;2.30;2.10;;;;;;;14.00;100.00;99454.41;5010766;28;20175;-68
2022/10/15 07:00:09;;;;;;;1.97;1.87;;;;;;;14.07;100.00;99447.81;4983418;28;20210;-68
2022/10/15 07:02:35;;;;;;;2.00;1.90;;;;;;;14.14;100.00;99454.16;5019122;28;20278;-69
2022/10/15 07:05:00;;;;;;;3.03;1.80;;;;;;;14.22;100.00;99452.72;5001596;28;20233;-68
2022/10/15 07:07:25;;;;;;;1.93;1.80;;;;;;;14.25;100.00;99452.47;5004737;28;20187;-68
2022/10/15 07:09:52;;;;;;;4.17;2.17;;;;;;;14.30;100.00;99456.34;5012591;28;20203;-68
2022/10/15 07:12:20;;;;;;;2.67;2.47;;;;;;;14.30;100.00;99461.50;5002265;28;20219;-68
2022/10/15 07:14:46;;;;;;;6.20;2.20;;;;;;;14.34;100.00;99465.47;5013387;28;20190;-67
2022/10/15 07:17:11;;;;;;;2.40;2.20;;;;;;;14.36;100.00;99471.38;5002182;28;20235;-68
2022/10/15 07:19:36;;;;;;;2.50;1.87;;;;;;;14.29;100.00;99462.44;4995110;28;20654;-68
2022/10/15 07:22:01;;;;;;;2.33;2.13;;;;;;;14.31;100.00;99452.81;5004086;28;20233;-68
2022/10/15 07:24:27;;;;;;;2.00;1.90;;;;;;;14.40;100.00;99471.09;5013263;28;20209;-68
2022/10/15 07:26:52;;;;;;;2.10;2.00;;;;;;;14.54;100.00;99470.81;5009289;28;20552;-68
2022/10/15 07:29:17;;;;;;;1.73;1.63;;;;;;;14.64;100.00;99468.31;4999311;28;20261;-68
2022/10/15 07:31:42;;;;;;;2.53;1.90;;;;;;;14.71;100.00;99466.88;4985898;28;20307;-68
2022/10/15 07:34:08;;;;;;;5.33;2.43;;;;;;;14.75;100.00;99476.03;4999421;28;20171;-67
2022/10/15 07:36:33;;;;;;;2.30;2.20;;;;;;;14.75;100.00;99470.84;5002893;28;20259;-68
2022/10/15 07:38:58;;;;;;;2.17;2.00;;;;;;;14.81;100.00;99478.13;5007919;28;20178;-73
2022/10/15 07:41:24;;;;;;;2.53;2.30;;;;;;;14.79;100.00;99474.03;4995606;28;20292;-67
2022/10/15 07:43:52;;;;;;;4.03;2.60;;;;;;;14.68;100.00;99473.09;5012480;28;20186;-67
2022/10/15 07:46:18;;;;;;;2.70;2.50;;;;;;;14.56;100.00;99475.84;5012755;28;20301;-60
2022/10/15 07:48:43;;;;;;;3.77;3.30;;;;;;;14.71;100.00;99482.41;5014262;28;20187;-70
2022/10/15 07:51:10;;;;;;;3.67;3.33;;;;;;;14.86;100.00;99477.75;5013846;28;20233;-70
2022/10/15 07:53:35;;;;;;;3.80;3.50;;;;;;;14.99;100.00;99483.53;5019570;28;20186;-70
2022/10/15 07:56:05;;;;;;;3.60;3.30;;;;;;;15.02;100.00;99485.06;5015000;28;20189;-70
2022/10/15 07:58:33;;;;;;;3.50;3.20;;;;;;;15.12;100.00;99483.34;5014254;28;20186;-70
2022/10/15 08:01:00;;;;;;;4.00;3.40;;;;;;;14.96;100.00;99477.81;5007169;28;20279;-70
2022/10/15 08:03:25;;;;;;;3.40;3.13;;;;;;;14.87;100.00;99483.75;5013901;28;20646;-70
2022/10/15 08:05:52;;;;;;;3.43;3.13;;;;;;;15.05;100.00;99489.19;5015015;28;20182;-70
2022/10/15 08:08:18;;;;;;;4.33;3.10;;;;;;;15.14;100.00;99485.81;5014092;28;20927;-70
2022/10/15 08:10:44;;;;;;;3.73;2.83;;;;;;;15.39;100.00;99487.13;5006658;28;20306;-70
2022/10/15 08:13:09;;;;;;;3.60;3.23;;;;;;;15.58;100.00;99481.22;5013988;28;20638;-70
2022/10/15 08:15:38;;;;;;;3.30;3.00;;;;;;;15.63;100.00;99470.47;5008191;28;20183;-69
2022/10/15 08:18:03;;;;;;;6.70;3.40;;;;;;;15.64;100.00;99472.09;5004793;28;20182;-69
2022/10/15 08:20:29;;;;;;;3.87;3.37;;;;;;;15.71;100.00;99483.59;5008268;28;20221;-71
2022/10/15 08:22:54;;;;;;;5.17;3.67;;;;;;;15.78;100.00;99486.47;5026765;28;20729;-69
2022/10/15 08:25:19;;;;;;;4.83;3.73;;;;;;;15.67;100.00;99482.22;5013391;28;20337;-70
2022/10/15 08:27:45;;;;;;;3.20;2.90;;;;;;;15.43;100.00;99485.94;5013812;28;20197;-69
2022/10/15 08:30:10;;;;;;;4.40;2.60;;;;;;;15.53;100.00;99490.34;5005174;28;20493;-70
2022/10/15 08:32:35;;;;;;;2.83;2.63;;;;;;;15.60;100.00;99488.88;5013245;28;20183;-69
2022/10/15 08:35:01;;;;;;;2.70;2.50;;;;;;;15.56;100.00;99492.69;5014814;28;20613;-68
2022/10/15 08:37:26;;;;;;;3.47;2.20;;;;;;;15.61;100.00;99491.31;5014141;28;20186;-66
2022/10/15 08:39:51;;;;;;;4.07;2.50;;;;;;;15.82;100.00;99493.06;5012794;28;20198;-69
2022/10/15 08:42:27;;;;;;;2.40;2.20;;;;;;;15.91;100.00;99494.84;5019216;28;20229;-67
2022/10/15 08:44:58;;;;;;;3.60;2.37;;;;;;;15.97;100.00;99494.31;5014106;28;20185;-67
2022/10/15 08:47:42;;;;;;;2.70;2.50;;;;;;;16.21;100.00;99497.50;5012421;28;20229;-67
2022/10/15 08:50:16;;;;;;;3.67;2.23;;;;;;;16.43;100.00;99497.28;5007084;28;20234;-66
2022/10/15 08:52:48;;;;;;;2.33;1.77;;;;;;;16.81;100.00;99496.53;5027635;28;20786;-66
2022/10/15 08:55:16;;;;;;;2.73;1.90;;;;;;;17.01;100.00;99490.38;5013529;28;20270;-66
2022/10/15 08:58:03;;;;;;;1.77;1.67;;;;;;;17.06;100.00;99489.97;5011891;28;20677;-67
2022/10/15 09:00:43;;;;;;;1.73;1.50;;;;;;;17.32;100.00;99494.56;4993654;28;20674;-67
2022/10/15 09:03:29;;;;;;;1.40;1.30;;;;;;;17.25;100.00;99484.72;5003316;28;20175;-67
2022/10/15 09:06:10;;;;;;;3.17;1.30;;;;;;;17.73;100.00;99492.47;5018774;28;20309;-68
2022/10/15 09:08:39;;;;;;;1.53;1.33;;;;;;;18.14;100.00;99492.91;5027239;28;20186;-67
2022/10/15 09:11:23;;;;;;;1.50;1.40;;;;;;;18.55;100.00;99493.28;5005198;28;20222;-66
2022/10/15 09:13:48;;;;;;;1.23;1.13;;;;;;;18.57;100.00;99490.56;5011961;28;20310;-67
2022/10/15 09:16:31;;;;;;;5.30;1.30;;;;;;;18.46;100.00;99493.38;5013370;28;20660;-68
2022/10/15 09:18:59;;;;;;;1.73;1.20;;;;;;;18.78;100.00;99499.81;5013235;28;20183;-67
2022/10/15 09:21:25;;;;;;;3.30;1.27;;;;;;;19.16;100.00;99493.44;5005198;28;20222;-67
2022/10/15 09:23:54;;;;;;;2.20;1.20;;;;;;;19.11;100.00;99497.47;5001704;28;20194;-67
2022/10/15 09:26:29;;;;;;;1.50;1.40;;;;;;;19.20;100.00;99496.53;5011640;28;20178;-67
2022/10/15 09:29:15;;;;;;;4.33;1.10;;;;;;;20.20;100.00;99497.75;5012993;28;20630;-66
2022/10/15 09:32:15;;;;;;;0.97;0.97;;;;;;;20.31;100.00;99492.19;5001406;28;20229;-67
2022/10/15 09:34:59;;;;;;;1.23;0.90;;;;;;;20.43;100.00;99493.53;5006112;28;20183;-67
2022/10/15 09:37:34;;;;;;;2.47;0.87;;;;;;;22.04;100.00;99483.97;5009267;28;20257;-66
2022/10/15 09:40:32;;;;;;;0.97;0.90;;;;;;;24.04;99.02;99479.19;5001197;28;20772;-66
2022/10/15 09:42:59;;;;;;;3.90;0.80;;;;;;;24.87;89.89;99485.75;4998465;28;20221;-70
2022/10/15 09:45:25;;;;;;;3.13;1.10;;;;;;;25.01;87.04;99497.19;5000834;28;20234;-69
2022/10/15 09:47:55;;;;;;;1.02;1.02;;;;;;;23.57;94.40;99494.38;5011499;28;20178;-70
2022/10/15 09:50:20;;;;;;;1.25;1.15;;;;;;;22.70;100.00;99493.97;5017191;28;20203;-71
2022/10/15 09:53:05;;;;;;;1.42;1.33;;;;;;;23.12;100.00;99493.56;5020187;28;20689;-71
2022/10/15 09:56:21;;;;;;;2.65;2.45;;;;;;;21.79;100.00;99496.34;4983086;28;20630;-70
2022/10/15 09:58:52;;;;;;;1.52;1.42;;;;;;;20.86;100.00;99495.97;4973643;28;20266;-68
2022/10/15 10:01:22;;;;;;;2.73;1.60;;;;;;;20.48;100.00;99499.06;4951212;28;20224;-67
2022/10/15 10:04:09;;;;;;;1.63;1.40;;;;;;;20.47;100.00;99499.22;4967033;28;20184;-67
2022/10/15 10:06:47;;;;;;;2.20;1.30;;;;;;;20.09;100.00;99496.25;4973580;28;20236;-69
2022/10/15 10:09:21;;;;;;;1.50;1.40;;;;;;;19.46;100.00;99506.13;4973498;28;20211;-67
2022/10/15 10:11:52;;;;;;;3.17;1.20;;;;;;;19.28;100.00;99504.41;4980251;28;20227;-66
2022/10/15 10:14:30;;;;;;;1.30;1.10;;;;;;;18.54;100.00;99502.09;4989146;28;20270;-67
2022/10/15 10:17:17;;;;;;;1.73;1.27;;;;;;;18.70;100.00;99501.41;4972822;28;20186;-70
2022/10/15 10:19:44;;;;;;;0.90;0.90;;;;;;;18.73;100.00;99509.88;4973630;28;20179;-70
2022/10/15 10:22:19;;;;;;;1.27;0.90;;;;;;;18.37;100.00;99506.31;4946398;28;20220;-69
2022/10/15 10:24:45;;;;;;;2.77;1.00;;;;;;;18.78;100.00;99516.28;4973030;28;20210;-70
2022/10/15 10:27:20;;;;;;;0.80;0.80;;;;;;;18.64;100.00;99507.22;4973317;28;20182;-67
2022/10/15 10:29:53;;;;;;;1.20;1.10;;;;;;;18.47;100.00;99508.84;4973319;28;20207;-67
2022/10/15 10:32:23;;;;;;;1.00;1.00;;;;;;;18.76;100.00;99517.41;4963245;28;20231;-67
2022/10/15 10:34:49;;;;;;;2.40;1.00;;;;;;;18.68;100.00;99518.97;4982025;28;20232;-67
2022/10/15 10:37:14;;;;;;;1.03;0.80;;;;;;;18.38;100.00;99515.78;4998188;28;20183;-68
2022/10/15 10:39:44;;;;;;;1.40;1.00;;;;;;;18.43;100.00;99512.75;5018581;28;20210;-67
2022/10/15 10:42:15;;;;;;;1.13;0.90;;;;;;;18.43;100.00;99507.53;5002976;28;20229;-69
2022/10/15 10:44:45;;;;;;;0.93;0.80;;;;;;;18.37;100.00;99502.91;5011655;28;20209;-66
2022/10/15 10:47:25;;;;;;;0.70;0.70;;;;;;;18.05;100.00;99502.44;5011780;28;20238;-65
2022/10/15 10:49:53;;;;;;;2.00;0.70;;;;;;;18.64;100.00;99501.16;5003641;28;20310;-67
2022/10/15 10:52:27;;;;;;;2.10;0.83;;;;;;;18.95;100.00;99495.56;5000927;28;20791;-66
2022/10/15 10:55:10;;;;;;;0.83;0.60;;;;;;;19.23;100.00;99483.19;5011545;28;20337;-66
2022/10/15 10:57:56;;;;;;;3.37;0.90;;;;;;;19.10;100.00;99475.81;5010993;28;20182;-66
2022/10/15 11:00:54;;;;;;;1.23;0.97;;;;;;;18.98;100.00;99474.44;4977840;28;20235;-66
2022/10/15 11:03:35;;;;;;;1.77;0.63;;;;;;;19.00;100.00;99475.91;4985220;28;20229;-67
2022/10/15 11:06:19;;;;;;;2.70;1.07;;;;;;;19.24;100.00;99471.78;4993205;28;20191;-67
2022/10/15 11:09:03;;;;;;;1.50;0.90;;;;;;;19.45;100.00;99468.78;5008497;28;20179;-65
2022/10/15 11:11:43;;;;;;;0.93;0.80;;;;;;;19.34;100.00;99469.88;4998654;28;20232;-66
2022/10/15 11:14:49;;;;;;;1.13;0.90;;;;;;;19.30;100.00;99459.91;4991902;28;20262;-64
2022/10/15 11:17:42;;;;;;;0.67;0.67;;;;;;;19.45;100.00;99445.31;5000051;28;20233;-65
2022/10/15 11:20:15;;;;;;;1.13;0.80;;;;;;;19.39;100.00;99455.53;4983001;28;20222;-67
2022/10/15 11:22:58;;;;;;;2.13;1.47;;;;;;;18.84;100.00;99454.91;5005317;28;20194;-66
2022/10/15 11:25:38;;;;;;;1.80;1.70;;;;;;;19.05;100.00;99451.97;5009705;28;20267;-66
2022/10/15 11:28:06;;;;;;;1.70;0.90;;;;;;;19.34;100.00;99456.03;4996905;28;20190;-66
2022/10/15 11:30:48;;;;;;;5.03;0.80;;;;;;;19.63;100.00;99450.41;4962806;28;20234;-66
2022/10/15 11:33:29;;;;;;;0.93;0.80;;;;;;;19.66;100.00;99442.28;4979739;28;20682;-65
2022/10/15 11:36:20;;;;;;;1.93;0.87;;;;;;;19.15;100.00;99455.31;4985114;28;20182;-65
2022/10/15 11:39:11;;;;;;;2.73;0.90;;;;;;;18.81;100.00;99448.22;5005600;28;20551;-67